createdAt,value
2022-11-06T00:01:09.558Z,99.90
2022-11-06T00:03:36.799Z,99.90
2022-11-06T00:06:27.214Z,99.90
2022-11-06T00:08:54.274Z,99.90
2022-11-06T00:11:21.587Z,99.90
2022-11-06T00:13:49.504Z,99.90
2022-11-06T00:16:16.247Z,99.90
2022-11-06T00:18:42.966Z,99.90
2022-11-06T00:21:16.223Z,99.90
2022-11-06T00:23:43.274Z,99.90
2022-11-06T00:26:12.393Z,99.90
2022-11-06T00:28:39.890Z,99.90
2022-11-06T00:31:09.124Z,99.90
2022-11-06T00:33:35.915Z,99.90
2022-11-06T00:36:04.570Z,99.90
2022-11-06T00:38:31.716Z,99.90
2022-11-06T00:41:03.475Z,99.90
2022-11-06T00:43:38.475Z,99.90
2022-11-06T00:46:08.993Z,99.90
2022-11-06T00:48:36.623Z,99.90
2022-11-06T00:51:04.805Z,99.90
2022-11-06T00:53:31.559Z,99.90
2022-11-06T00:56:20.257Z,99.90
2022-11-06T00:58:48.376Z,99.90
2022-11-06T01:01:29.999Z,99.90
2022-11-06T01:03:59.625Z,99.90
2022-11-06T01:06:29.652Z,99.90
2022-11-06T01:08:57.967Z,99.90
2022-11-06T01:12:06.637Z,99.90
2022-11-06T01:14:26.741Z,99.90
2022-11-06T01:17:03.074Z,99.90
2022-11-06T01:19:29.735Z,99.90
2022-11-06T01:21:56.394Z,99.90
2022-11-06T01:24:25.578Z,99.90
2022-11-06T01:27:20.304Z,99.90
2022-11-06T01:29:39.586Z,99.90
2022-11-06T01:32:06.558Z,99.90
2022-11-06T01:34:33.286Z,99.90
2022-11-06T01:36:59.890Z,99.90
2022-11-06T01:39:26.586Z,99.90
2022-11-06T01:41:53.742Z,99.90
2022-11-06T01:44:35.716Z,99.90
2022-11-06T01:47:05.346Z,99.90
2022-11-06T01:49:37.762Z,99.90
2022-11-06T01:52:11.364Z,99.90
2022-11-06T01:54:40.491Z,99.90
2022-11-06T01:57:07.809Z,99.90
2022-11-06T01:59:40.051Z,99.90
2022-11-06T02:02:07.092Z,99.90
2022-11-06T02:04:37.659Z,99.90
2022-11-06T02:07:05.191Z,99.90
2022-11-06T02:09:34.052Z,99.90
2022-11-06T02:12:21.843Z,99.90
2022-11-06T02:15:40.947Z,99.90
2022-11-06T02:18:28.954Z,99.90
2022-11-06T02:21:17.764Z,99.90
2022-11-06T02:23:53.391Z,99.90
2022-11-06T02:26:37.579Z,99.90
2022-11-06T02:29:15.001Z,99.90
2022-11-06T02:31:44.467Z,99.90
2022-11-06T02:34:15.226Z,99.90
2022-11-06T02:37:01.372Z,99.90
2022-11-06T02:39:30.762Z,99.90
2022-11-06T02:41:58.507Z,99.90
2022-11-06T02:44:28.135Z,99.90
2022-11-06T02:47:00.758Z,99.90
2022-11-06T02:49:49.115Z,99.90
2022-11-06T02:52:23.144Z,99.90
2022-11-06T02:55:00.087Z,99.90
2022-11-06T02:57:29.014Z,99.90
2022-11-06T03:00:06.540Z,99.90
2022-11-06T03:02:41.755Z,99.90
2022-11-06T03:05:22.456Z,99.90
2022-11-06T03:08:12.111Z,99.90
2022-11-06T03:10:59.567Z,99.90
2022-11-06T03:13:43.317Z,99.90
2022-11-06T03:16:33.148Z,99.90
2022-11-06T03:19:21.819Z,99.90
2022-11-06T03:21:57.652Z,99.90
2022-11-06T03:24:46.054Z,99.90
2022-11-06T03:27:18.028Z,99.90
2022-11-06T03:29:49.447Z,99.90
2022-11-06T03:32:27.880Z,99.90
2022-11-06T03:35:00.969Z,99.90
2022-11-06T03:37:36.325Z,99.90
2022-11-06T03:40:08.521Z,99.90
2022-11-06T03:42:38.106Z,99.90
2022-11-06T03:45:16.456Z,99.90
2022-11-06T03:47:50.163Z,99.90
2022-11-06T03:50:23.303Z,99.90
2022-11-06T03:52:54.654Z,99.90
2022-11-06T03:55:33.837Z,99.90
2022-11-06T03:58:08.342Z,99.90
2022-11-06T04:00:37.795Z,99.90
2022-11-06T04:03:11.397Z,99.90
2022-11-06T04:05:48.339Z,99.90
2022-11-06T04:08:36.277Z,99.90
2022-11-06T04:11:24.974Z,99.90
2022-11-06T04:14:04.302Z,99.90
2022-11-06T04:16:37.569Z,99.90
2022-11-06T04:19:13.775Z,99.90
2022-11-06T04:22:17.915Z,99.90
2022-11-06T04:25:24.874Z,99.90
2022-11-06T04:28:45.882Z,99.90
2022-11-06T04:31:30.867Z,99.90
2022-11-06T04:34:09.212Z,99.90
2022-11-06T04:37:08.866Z,99.90
2022-11-06T04:39:49.691Z,99.90
2022-11-06T04:42:31.832Z,99.90
2022-11-06T04:45:16.706Z,99.90
2022-11-06T04:47:45.326Z,99.90
2022-11-06T04:50:13.495Z,99.90
2022-11-06T04:52:42.509Z,99.90
2022-11-06T04:55:09.314Z,99.90
2022-11-06T04:57:35.891Z,99.90
2022-11-06T05:00:02.516Z,99.90
2022-11-06T05:02:29.287Z,99.90
2022-11-06T05:04:55.976Z,99.90
2022-11-06T05:07:22.552Z,99.90
2022-11-06T05:09:49.238Z,99.90
2022-11-06T05:12:15.843Z,99.90
2022-11-06T05:14:42.453Z,99.90
2022-11-06T05:17:09.070Z,99.90
2022-11-06T05:19:35.644Z,99.90
2022-11-06T05:22:20.776Z,99.90
2022-11-06T05:24:47.341Z,99.90
2022-11-06T05:27:13.933Z,99.90
2022-11-06T05:29:40.538Z,99.90
2022-11-06T05:32:07.172Z,99.90
2022-11-06T05:34:33.838Z,99.90
2022-11-06T05:37:00.421Z,99.90
2022-11-06T05:39:27.058Z,99.90
2022-11-06T05:41:53.663Z,99.90
2022-11-06T05:44:20.326Z,99.90
2022-11-06T05:46:49.688Z,99.90
2022-11-06T05:49:18.232Z,99.90
2022-11-06T05:51:44.965Z,99.90
2022-11-06T05:54:11.630Z,99.90
2022-11-06T05:56:38.283Z,99.90
2022-11-06T05:59:04.903Z,99.90
2022-11-06T06:01:31.677Z,99.90
2022-11-06T06:03:58.367Z,99.90
2022-11-06T06:06:25.445Z,99.90
2022-11-06T06:08:52.006Z,99.90
2022-11-06T06:11:18.608Z,99.90
2022-11-06T06:13:45.371Z,99.90
2022-11-06T06:16:11.966Z,99.90
2022-11-06T06:18:38.538Z,99.90
2022-11-06T06:21:05.273Z,99.90
2022-11-06T06:23:31.846Z,99.90
2022-11-06T06:25:58.434Z,99.90
2022-11-06T06:28:25.369Z,99.90
2022-11-06T06:30:53.830Z,99.90
2022-11-06T06:33:23.852Z,99.90
2022-11-06T06:35:50.433Z,99.90
2022-11-06T06:38:17.018Z,99.90
2022-11-06T06:40:43.623Z,99.90
2022-11-06T06:43:10.206Z,99.90
2022-11-06T06:45:36.786Z,99.90
2022-11-06T06:48:04.766Z,99.90
2022-11-06T06:50:32.198Z,99.90
2022-11-06T06:52:59.262Z,99.90
2022-11-06T06:55:26.520Z,99.90
2022-11-06T06:58:00.538Z,99.90
2022-11-06T07:00:28.589Z,99.90
2022-11-06T07:02:55.203Z,99.90
2022-11-06T07:05:22.132Z,99.90
2022-11-06T07:07:48.691Z,99.90
2022-11-06T07:10:15.354Z,99.90
2022-11-06T07:12:42.013Z,99.90
2022-11-06T07:15:09.617Z,99.90
2022-11-06T07:17:36.310Z,99.90
2022-11-06T07:20:05.019Z,99.90
2022-11-06T07:22:36.934Z,99.90
2022-11-06T07:25:06.010Z,99.90
2022-11-06T07:27:33.433Z,99.90
2022-11-06T07:30:00.507Z,99.90
2022-11-06T07:32:27.482Z,99.90
2022-11-06T07:34:54.174Z,99.90
2022-11-06T07:37:20.861Z,99.90
2022-11-06T07:39:47.578Z,99.90
2022-11-06T07:42:14.251Z,99.90
2022-11-06T07:44:55.462Z,99.90
2022-11-06T07:47:22.909Z,99.90
2022-11-06T07:49:51.106Z,99.90
2022-11-06T07:52:17.958Z,99.90
2022-11-06T07:54:44.571Z,99.90
2022-11-06T07:57:11.139Z,99.90
2022-11-06T07:59:37.717Z,99.90
2022-11-06T08:02:04.492Z,99.90
2022-11-06T08:04:31.226Z,99.90
2022-11-06T08:06:58.054Z,99.90
2022-11-06T08:09:25.109Z,99.90
2022-11-06T08:11:51.681Z,99.90
2022-11-06T08:14:18.262Z,99.90
2022-11-06T08:16:44.843Z,99.90
2022-11-06T08:19:11.411Z,99.90
2022-11-06T08:21:37.974Z,99.90
2022-11-06T08:24:05.357Z,99.90
2022-11-06T08:26:32.011Z,99.90
2022-11-06T08:28:58.611Z,99.90
2022-11-06T08:31:25.453Z,99.90
2022-11-06T08:33:53.237Z,99.90
2022-11-06T08:36:19.961Z,99.90
2022-11-06T08:38:49.767Z,99.90
2022-11-06T08:41:16.861Z,99.90
2022-11-06T08:43:43.413Z,99.90
2022-11-06T08:46:11.314Z,99.90
2022-11-06T08:48:38.104Z,99.90
2022-11-06T08:51:05.332Z,99.90
2022-11-06T08:53:31.971Z,99.90
2022-11-06T08:55:58.700Z,99.90
2022-11-06T08:58:25.456Z,99.90
2022-11-06T09:00:52.049Z,99.90
2022-11-06T09:03:18.745Z,99.90
2022-11-06T09:05:45.974Z,99.90
2022-11-06T09:08:13.703Z,99.90
2022-11-06T09:10:42.151Z,99.90
2022-11-06T09:13:09.382Z,99.90
2022-11-06T09:15:36.594Z,99.90
2022-11-06T09:18:03.455Z,99.90
2022-11-06T09:20:30.131Z,99.90
2022-11-06T09:23:04.802Z,99.90
2022-11-06T09:25:31.598Z,99.90
2022-11-06T09:27:59.820Z,99.90
2022-11-06T09:30:29.521Z,99.90
2022-11-06T09:32:58.589Z,99.90
2022-11-06T09:35:26.764Z,99.90
2022-11-06T09:37:53.454Z,99.90
2022-11-06T09:40:22.471Z,99.90
2022-11-06T09:43:02.062Z,99.90
2022-11-06T09:45:32.148Z,99.90
2022-11-06T09:48:13.453Z,99.90
2022-11-06T09:51:06.812Z,99.90
2022-11-06T09:53:36.254Z,99.90
2022-11-06T09:56:04.822Z,99.90
2022-11-06T09:58:35.678Z,99.90
2022-11-06T10:01:27.360Z,99.90
2022-11-06T10:03:59.881Z,99.90
2022-11-06T10:06:28.243Z,99.90
2022-11-06T10:08:59.598Z,99.90
2022-11-06T10:11:50.060Z,99.90
2022-11-06T10:14:25.575Z,99.90
2022-11-06T10:17:06.352Z,99.90
2022-11-06T10:19:39.372Z,99.90
2022-11-06T10:22:17.813Z,99.90
2022-11-06T10:24:59.809Z,99.90
2022-11-06T10:27:36.836Z,99.90
2022-11-06T10:30:13.708Z,99.90
2022-11-06T10:32:57.701Z,99.90
2022-11-06T10:35:31.151Z,99.90
2022-11-06T10:38:15.119Z,99.90
2022-11-06T10:40:48.923Z,99.90
2022-11-06T10:43:26.704Z,99.90
2022-11-06T10:46:20.727Z,99.90
2022-11-06T10:48:57.691Z,99.90
2022-11-06T10:51:45.938Z,99.90
2022-11-06T10:54:35.578Z,99.90
2022-11-06T10:57:12.832Z,99.90
2022-11-06T10:59:48.475Z,99.90
2022-11-06T11:02:40.819Z,99.90
2022-11-06T11:05:22.325Z,99.90
2022-11-06T11:07:55.054Z,99.90
2022-11-06T11:10:31.165Z,99.90
2022-11-06T11:13:04.083Z,99.90
2022-11-06T11:15:46.529Z,99.90
2022-11-06T11:18:13.405Z,99.90
2022-11-06T11:20:43.117Z,99.90
2022-11-06T11:23:22.279Z,99.90
2022-11-06T11:25:52.292Z,99.90
2022-11-06T11:28:31.009Z,99.90
2022-11-06T11:31:07.542Z,99.90
2022-11-06T11:33:35.092Z,99.90
2022-11-06T11:36:04.597Z,99.90
2022-11-06T11:38:31.295Z,99.90
2022-11-06T11:41:20.652Z,99.90
2022-11-06T11:44:07.247Z,99.90
2022-11-06T11:46:34.204Z,99.90
2022-11-06T11:49:02.159Z,99.90
2022-11-06T11:51:30.639Z,99.90
2022-11-06T11:54:15.166Z,99.90
2022-11-06T11:57:09.561Z,99.90
2022-11-06T11:59:47.168Z,99.90
2022-11-06T12:02:27.402Z,99.90
2022-11-06T12:05:05.951Z,99.90
2022-11-06T12:07:43.427Z,99.90
2022-11-06T12:10:29.333Z,99.90
2022-11-06T12:12:57.784Z,99.90
2022-11-06T12:15:29.255Z,99.90
2022-11-06T12:18:06.603Z,99.90
2022-11-06T12:20:55.069Z,99.90
2022-11-06T12:23:28.552Z,99.90
2022-11-06T12:26:07.602Z,99.90
2022-11-06T12:28:37.794Z,99.90
2022-11-06T12:31:24.254Z,99.90
2022-11-06T12:34:17.054Z,99.90
2022-11-06T12:36:55.103Z,99.90
2022-11-06T12:39:27.651Z,99.90
2022-11-06T12:41:56.489Z,99.90
2022-11-06T12:44:23.124Z,99.90
2022-11-06T12:47:08.050Z,99.90
2022-11-06T12:49:55.324Z,99.90
2022-11-06T12:52:55.771Z,99.90
2022-11-06T12:55:34.755Z,99.90
2022-11-06T12:58:10.174Z,99.90
2022-11-06T13:00:51.883Z,99.90
2022-11-06T13:03:50.079Z,99.90
2022-11-06T13:06:21.871Z,99.90
2022-11-06T13:09:10.608Z,99.90
2022-11-06T13:11:48.055Z,99.90
2022-11-06T13:14:25.411Z,99.90
2022-11-06T13:17:07.139Z,99.90
2022-11-06T13:19:42.851Z,99.90
2022-11-06T13:22:31.256Z,99.90
2022-11-06T13:25:10.125Z,99.90
2022-11-06T13:27:51.331Z,99.90
2022-11-06T13:30:20.511Z,99.90
2022-11-06T13:33:12.458Z,99.90
2022-11-06T13:35:43.061Z,99.90
2022-11-06T13:38:16.779Z,99.90
2022-11-06T13:40:47.123Z,99.90
2022-11-06T13:43:19.915Z,99.90
2022-11-06T13:46:08.239Z,99.90
2022-11-06T13:48:43.466Z,99.90
2022-11-06T13:51:33.523Z,99.90
2022-11-06T13:54:19.885Z,99.90
2022-11-06T13:57:28.204Z,99.90
2022-11-06T14:00:07.489Z,99.90
2022-11-06T14:02:55.393Z,99.90
2022-11-06T14:05:45.010Z,99.90
2022-11-06T14:08:24.522Z,99.90
2022-11-06T14:11:19.231Z,99.90
2022-11-06T14:14:02.032Z,99.90
2022-11-06T14:16:30.472Z,99.90
2022-11-06T14:19:02.424Z,99.90
2022-11-06T14:21:44.670Z,99.90
2022-11-06T14:24:39.007Z,99.90
2022-11-06T14:27:25.880Z,99.90
2022-11-06T14:30:14.115Z,99.90
2022-11-06T14:32:46.997Z,99.90
2022-11-06T14:35:28.655Z,99.90
2022-11-06T14:38:10.712Z,99.90
2022-11-06T14:40:38.788Z,99.90
2022-11-06T14:43:19.956Z,99.90
2022-11-06T14:45:57.580Z,99.90
2022-11-06T14:48:36.773Z,99.90
2022-11-06T14:51:07.864Z,99.90
2022-11-06T14:53:50.166Z,99.90
2022-11-06T14:56:39.506Z,99.90
2022-11-06T14:59:16.499Z,99.90
2022-11-06T15:02:23.410Z,99.90
2022-11-06T15:05:00.116Z,99.90
2022-11-06T15:08:06.220Z,99.90
2022-11-06T15:10:42.595Z,99.90
2022-11-06T15:13:17.191Z,99.90
2022-11-06T15:15:47.733Z,99.90
2022-11-06T15:18:22.870Z,99.90
2022-11-06T15:20:58.424Z,99.90
2022-11-06T15:24:12.673Z,99.90
2022-11-06T15:26:48.595Z,99.90
2022-11-06T15:29:24.845Z,99.90
2022-11-06T15:31:58.678Z,99.90
2022-11-06T15:34:39.031Z,99.90
2022-11-06T15:37:17.072Z,99.90
2022-11-06T15:39:56.012Z,99.90
2022-11-06T15:42:29.599Z,99.90
2022-11-06T15:45:15.579Z,99.90
2022-11-06T15:47:53.337Z,99.90
2022-11-06T15:50:23.209Z,99.90
2022-11-06T15:52:50.145Z,99.90
2022-11-06T15:55:27.108Z,99.90
2022-11-06T15:57:54.256Z,99.90
2022-11-06T16:00:25.415Z,99.90
2022-11-06T16:02:58.090Z,99.90
2022-11-06T16:05:26.692Z,99.90
2022-11-06T16:07:53.419Z,99.90
2022-11-06T16:10:22.379Z,99.90
2022-11-06T16:12:50.778Z,99.90
2022-11-06T16:15:45.475Z,99.90
2022-11-06T16:18:22.415Z,99.90
2022-11-06T16:21:16.437Z,99.90
2022-11-06T16:23:51.855Z,99.90
2022-11-06T16:26:25.677Z,99.90
2022-11-06T16:28:54.244Z,99.90
2022-11-06T16:31:21.897Z,99.90
2022-11-06T16:34:19.300Z,99.90
2022-11-06T16:36:50.256Z,99.90
2022-11-06T16:39:16.806Z,99.90
2022-11-06T16:42:06.473Z,99.90
2022-11-06T16:44:35.848Z,99.90
2022-11-06T16:47:05.604Z,99.90
2022-11-06T16:49:36.238Z,99.90
2022-11-06T16:52:16.223Z,99.90
2022-11-06T16:55:18.150Z,99.90
2022-11-06T16:57:52.805Z,99.90
2022-11-06T17:00:19.337Z,99.90
2022-11-06T17:02:52.484Z,99.90
2022-11-06T17:05:27.714Z,99.90
2022-11-06T17:08:32.050Z,99.90
2022-11-06T17:11:14.176Z,99.90
2022-11-06T17:13:44.911Z,99.90
2022-11-06T17:16:14.729Z,99.90
2022-11-06T17:18:41.756Z,99.90
2022-11-06T17:21:14.481Z,99.90
2022-11-06T17:23:41.141Z,99.90
2022-11-06T17:26:47.159Z,99.90
2022-11-06T17:29:16.992Z,99.90
2022-11-06T17:31:49.871Z,99.90
2022-11-06T17:34:16.515Z,99.90
2022-11-06T17:36:43.479Z,99.90
2022-11-06T17:39:10.038Z,99.90
2022-11-06T17:41:36.612Z,99.90
2022-11-06T17:44:06.217Z,99.90
2022-11-06T17:46:37.798Z,99.90
2022-11-06T17:49:04.918Z,99.90
2022-11-06T17:51:50.265Z,99.90
2022-11-06T17:54:18.496Z,99.90
2022-11-06T17:56:45.113Z,99.90
2022-11-06T17:59:13.245Z,99.90
2022-11-06T18:01:40.288Z,99.90
2022-11-06T18:04:07.154Z,99.90
2022-11-06T18:06:33.820Z,99.90
2022-11-06T18:09:01.828Z,99.90
2022-11-06T18:11:28.944Z,99.90
2022-11-06T18:13:55.635Z,99.90
2022-11-06T18:16:27.193Z,99.90
2022-11-06T18:18:54.442Z,99.90
2022-11-06T18:21:21.053Z,99.90
2022-11-06T18:23:47.900Z,99.90
2022-11-06T18:26:14.557Z,99.90
2022-11-06T18:28:41.256Z,99.90
2022-11-06T18:31:08.430Z,99.90
2022-11-06T18:33:35.346Z,99.90
2022-11-06T18:36:07.358Z,99.90
2022-11-06T18:38:34.166Z,99.90
2022-11-06T18:41:10.861Z,99.90
2022-11-06T18:43:37.570Z,99.90
2022-11-06T18:46:06.845Z,99.90
2022-11-06T18:48:34.101Z,99.90
2022-11-06T18:51:13.336Z,99.90
2022-11-06T18:53:40.901Z,99.80
2022-11-06T18:56:12.521Z,99.80
2022-11-06T18:58:40.026Z,99.70
2022-11-06T19:01:11.700Z,99.30
2022-11-06T19:03:38.831Z,99.50
2022-11-06T19:06:08.937Z,99.40
2022-11-06T19:08:37.334Z,99.20
2022-11-06T19:11:05.801Z,99.30
2022-11-06T19:13:32.441Z,99.20
2022-11-06T19:15:59.340Z,99.30
2022-11-06T19:18:33.781Z,99.10
2022-11-06T19:21:02.875Z,99.00
2022-11-06T19:23:29.662Z,99.00
2022-11-06T19:26:10.506Z,99.00
2022-11-06T19:28:44.147Z,99.00
2022-11-06T19:31:10.940Z,99.90
2022-11-06T19:33:37.626Z,99.00
2022-11-06T19:36:04.489Z,98.90
2022-11-06T19:38:31.143Z,98.80
2022-11-06T19:41:00.241Z,98.90
2022-11-06T19:43:34.592Z,98.70
2022-11-06T19:46:05.280Z,98.90
2022-11-06T19:48:32.395Z,98.90
2022-11-06T19:51:00.224Z,98.60
2022-11-06T19:53:27.724Z,98.50
2022-11-06T19:55:58.903Z,98.90
2022-11-06T19:58:26.728Z,98.60
2022-11-06T20:00:55.966Z,98.60
2022-11-06T20:03:26.504Z,98.90
2022-11-06T20:05:54.386Z,98.90
2022-11-06T20:08:21.030Z,98.60
2022-11-06T20:10:47.737Z,98.70
2022-11-06T20:13:15.353Z,98.70
2022-11-06T20:15:42.468Z,98.70
2022-11-06T20:18:17.489Z,98.40
2022-11-06T20:20:45.608Z,98.70
2022-11-06T20:23:12.543Z,98.60
2022-11-06T20:25:42.293Z,98.60
2022-11-06T20:28:08.960Z,98.60
2022-11-06T20:30:35.831Z,98.60
2022-11-06T20:33:05.492Z,98.70
2022-11-06T20:35:32.561Z,98.30
2022-11-06T20:37:59.278Z,98.30
2022-11-06T20:40:34.468Z,98.80
2022-11-06T20:43:01.509Z,98.80
2022-11-06T20:45:28.190Z,98.70
2022-11-06T20:47:55.283Z,98.70
2022-11-06T20:50:21.934Z,99.30
2022-11-06T20:52:48.565Z,99.80
2022-11-06T20:55:15.223Z,99.90
2022-11-06T20:57:41.906Z,99.90
2022-11-06T21:00:09.240Z,99.90
2022-11-06T21:02:36.037Z,99.90
2022-11-06T21:05:02.944Z,99.90
2022-11-06T21:07:29.676Z,99.90
2022-11-06T21:09:56.353Z,99.90
2022-11-06T21:12:23.279Z,99.90
2022-11-06T21:14:50.021Z,99.90
2022-11-06T21:17:16.703Z,99.90
2022-11-06T21:19:43.376Z,99.90
2022-11-06T21:22:10.138Z,99.90
2022-11-06T21:24:37.005Z,99.90
2022-11-06T21:27:06.605Z,99.90
2022-11-06T21:29:33.945Z,99.90
2022-11-06T21:32:00.619Z,99.90
2022-11-06T21:34:27.402Z,99.90
2022-11-06T21:36:56.990Z,99.90
2022-11-06T21:39:31.801Z,99.90
2022-11-06T21:42:05.679Z,99.90
2022-11-06T21:44:32.568Z,99.90
2022-11-06T21:47:00.781Z,99.90
2022-11-06T21:49:27.447Z,99.90
2022-11-06T21:52:14.039Z,99.90
2022-11-06T21:54:59.447Z,99.90
2022-11-06T21:57:26.187Z,99.90
2022-11-06T21:59:57.220Z,99.90
2022-11-06T22:02:27.060Z,99.90
2022-11-06T22:04:53.832Z,99.90
2022-11-06T22:07:22.672Z,99.90
2022-11-06T22:09:51.936Z,99.90
2022-11-06T22:12:18.528Z,99.90
2022-11-06T22:14:45.185Z,99.90
2022-11-06T22:17:11.869Z,99.90
2022-11-06T22:19:38.662Z,99.90
2022-11-06T22:22:05.302Z,99.90
2022-11-06T22:24:31.927Z,99.90
2022-11-06T22:26:58.861Z,99.90
2022-11-06T22:29:25.669Z,99.90
2022-11-06T22:31:55.150Z,99.90
2022-11-06T22:34:22.166Z,99.90
2022-11-06T22:36:48.920Z,99.90
2022-11-06T22:39:15.896Z,99.90
2022-11-06T22:41:42.733Z,99.90
2022-11-06T22:44:12.746Z,99.90
2022-11-06T22:46:43.072Z,99.90
2022-11-06T22:49:24.061Z,99.90
2022-11-06T22:51:57.227Z,99.90
2022-11-06T22:54:24.039Z,99.90
2022-11-06T22:56:50.775Z,99.90
2022-11-06T22:59:17.747Z,99.90
2022-11-06T23:01:44.415Z,99.90
2022-11-06T23:04:16.143Z,99.90
2022-11-06T23:06:44.677Z,99.90
2022-11-06T23:09:11.701Z,99.90
2022-11-06T23:11:39.330Z,99.90
2022-11-06T23:14:08.835Z,99.90
2022-11-06T23:16:54.644Z,99.90
2022-11-06T23:19:21.474Z,99.90
2022-11-06T23:21:48.331Z,99.90
2022-11-06T23:24:15.499Z,99.90
2022-11-06T23:26:43.692Z,99.90
2022-11-06T23:29:10.361Z,99.90
2022-11-06T23:31:37.051Z,99.90
2022-11-06T23:34:03.780Z,99.90
2022-11-06T23:36:30.487Z,99.90
2022-11-06T23:38:57.340Z,99.90
2022-11-06T23:41:42.564Z,99.90
2022-11-06T23:44:27.892Z,99.90
2022-11-06T23:46:54.611Z,99.90
2022-11-06T23:49:22.499Z,99.90
2022-11-06T23:51:52.274Z,99.90
2022-11-06T23:54:18.863Z,99.90
2022-11-06T23:56:45.481Z,99.90
2022-11-06T23:59:12.693Z,99.90
